Time;durP1;ratioP1;P1;durP2;ratioP2;P2;SDS_P1;SDS_P2;PMS_P1;PMS_P2;Temp;Humidity;BMP_temperature;BMP_pressure;BME280_temperature;BME280_humidity;BME280_pressure;Samples;Min_cycle;Max_cycle;Signal;HPM_P1;HPM_P2
2022/10/01 00:01:02;;;;;;;3.53;2.27;;;9.60;99.90;;;;;;5071394;28;20849;-87
2022/10/01 00:03:30;;;;;;;1.40;1.07;;;9.60;99.90;;;;;;5071470;28;20219;-88
2022/10/01 00:06:09;;;;;;;2.53;1.90;;;9.70;99.90;;;;;;5071658;28;20407;-87
2022/10/01 00:08:36;;;;;;;4.93;1.30;;;9.80;99.90;;;;;;5071367;28;20431;-87
2022/10/01 00:11:07;;;;;;;3.10;1.83;;;9.90;99.90;;;;;;5053368;28;20420;-85
2022/10/01 00:13:34;;;;;;;4.20;2.57;;;10.00;99.90;;;;;;5071310;28;20473;-88
2022/10/01 00:16:03;;;;;;;2.40;1.67;;;10.10;99.90;;;;;;5071215;28;20418;-88
2022/10/01 00:18:29;;;;;;;2.67;2.10;;;10.20;99.90;;;;;;5054724;28;20846;-88
2022/10/01 00:20:55;;;;;;;1.70;0.80;;;10.10;99.90;;;;;;5075714;28;20415;-89
2022/10/01 00:23:20;;;;;;;5.50;2.20;;;10.20;99.90;;;;;;5057572;28;20423;-86
2022/10/01 00:25:46;;;;;;;3.10;1.83;;;10.20;99.90;;;;;;5075121;28;20175;-88
2022/10/01 00:28:11;;;;;;;4.10;2.10;;;10.20;99.90;;;;;;5070515;28;20745;-88
2022/10/01 00:30:37;;;;;;;1.93;1.20;;;10.10;99.90;;;;;;5054667;28;20252;-85
2022/10/01 00:33:03;;;;;;;4.13;1.57;;;10.20;99.90;;;;;;5054676;28;20302;-86
2022/10/01 00:35:29;;;;;;;4.23;2.20;;;10.20;99.90;;;;;;5054442;28;20416;-85
2022/10/01 00:37:55;;;;;;;2.83;1.63;;;10.10;99.90;;;;;;5054282;28;20183;-86
2022/10/01 00:40:22;;;;;;;4.43;1.40;;;10.10;99.90;;;;;;5054214;28;20417;-88
2022/10/01 00:42:48;;;;;;;1.83;1.43;;;10.10;99.90;;;;;;5054177;28;20195;-88
2022/10/01 00:45:15;;;;;;;2.93;1.53;;;10.00;99.90;;;;;;5054347;28;20454;-86
2022/10/01 00:47:53;;;;;;;3.97;2.27;;;10.00;99.90;;;;;;5054444;28;20212;-86
2022/10/01 00:50:32;;;;;;;3.03;1.97;;;10.10;99.90;;;;;;5036389;28;20417;-87
2022/10/01 00:53:01;;;;;;;3.67;1.30;;;10.00;99.90;;;;;;5054568;28;20785;-86
2022/10/01 00:55:36;;;;;;;2.33;1.57;;;10.00;99.90;;;;;;5036474;28;20412;-87
2022/10/01 00:58:03;;;;;;;3.53;0.97;;;10.00;99.90;;;;;;5036301;28;20783;-87
2022/10/01 01:00:30;;;;;;;3.60;1.63;;;10.00;99.90;;;;;;5069551;28;20409;-88
2022/10/01 01:02:55;;;;;;;3.00;1.90;;;9.90;99.90;;;;;;5077083;28;20408;-86
2022/10/01 01:05:22;;;;;;;2.50;1.50;;;9.90;99.90;;;;;;5079532;28;20405;-87
2022/10/01 01:07:50;;;;;;;5.70;1.97;;;9.90;99.90;;;;;;5078414;28;20215;-88
2022/10/01 01:10:19;;;;;;;6.03;1.73;;;9.90;99.90;;;;;;5074045;28;20432;-87
2022/10/01 01:13:17;;;;;;;4.37;1.70;;;9.90;99.90;;;;;;5055326;28;20424;-87
2022/10/01 01:16:04;;;;;;;4.13;1.70;;;9.90;99.90;;;;;;5036308;28;20794;-87
2022/10/01 01:19:01;;;;;;;2.70;0.87;;;9.90;99.90;;;;;;5054050;28;20430;-86
2022/10/01 01:21:33;;;;;;;2.00;1.70;;;9.80;99.90;;;;;;5054086;28;20413;-86
2022/10/01 01:24:20;;;;;;;1.70;1.10;;;9.90;99.90;;;;;;5035708;28;20914;-85
2022/10/01 01:27:11;;;;;;;1.90;1.70;;;9.90;99.90;;;;;;5035770;28;20480;-87
2022/10/01 01:30:04;;;;;;;3.30;2.13;;;9.90;99.90;;;;;;5069090;28;20846;-88
2022/10/01 01:32:40;;;;;;;3.20;1.37;;;9.90;99.90;;;;;;5073289;28;20415;-87
2022/10/01 01:35:11;;;;;;;2.80;1.80;;;9.90;99.90;;;;;;5073887;28;20939;-87
2022/10/01 01:37:40;;;;;;;3.60;1.67;;;9.90;99.90;;;;;;5073985;28;21107;-87
2022/10/01 01:40:10;;;;;;;3.40;1.63;;;10.00;99.90;;;;;;5073572;28;20418;-88
2022/10/01 01:42:39;;;;;;;4.73;2.13;;;10.00;99.90;;;;;;5073404;28;20418;-87
2022/10/01 01:45:08;;;;;;;2.53;1.13;;;10.00;99.90;;;;;;5068092;28;20812;-89
2022/10/01 01:47:37;;;;;;;2.17;1.13;;;10.00;99.90;;;;;;5054204;28;20473;-90
2022/10/01 01:50:06;;;;;;;2.20;1.33;;;10.10;99.90;;;;;;5054152;28;20515;-89
2022/10/01 01:52:31;;;;;;;4.07;1.17;;;10.10;99.90;;;;;;5036258;28;20404;-90
2022/10/01 01:54:57;;;;;;;2.20;1.13;;;10.10;99.90;;;;;;5054765;28;20481;-91
2022/10/01 01:57:23;;;;;;;4.53;2.23;;;10.10;99.90;;;;;;5054083;28;20175;-90
2022/10/01 01:59:48;;;;;;;1.40;1.03;;;10.10;99.90;;;;;;5036493;28;20249;-88
2022/10/01 02:02:20;;;;;;;2.00;1.23;;;10.10;99.90;;;;;;5036366;28;20220;-89
2022/10/01 02:05:02;;;;;;;2.10;0.87;;;10.10;99.90;;;;;;5053903;28;20190;-90
2022/10/01 02:07:56;;;;;;;2.70;1.20;;;10.20;99.90;;;;;;5054423;28;20464;-90
2022/10/01 02:10:44;;;;;;;2.10;1.50;;;10.20;99.90;;;;;;5053789;28;20802;-88
2022/10/01 02:13:33;;;;;;;1.73;0.80;;;10.20;99.90;;;;;;5053459;28;20446;-90
2022/10/01 02:16:20;;;;;;;2.17;1.60;;;10.20;99.90;;;;;;5053408;28;20462;-88
2022/10/01 02:19:23;;;;;;;2.00;1.00;;;10.20;99.90;;;;;;5053936;28;20453;-90
2022/10/01 02:22:07;;;;;;;2.10;1.20;;;10.20;99.90;;;;;;5053872;28;20412;-90
2022/10/01 02:24:39;;;;;;;2.47;1.73;;;10.20;99.90;;;;;;5053757;28;20404;-88
2022/10/01 02:27:18;;;;;;;1.90;0.97;;;10.20;99.90;;;;;;5052377;28;20467;-86
2022/10/01 02:29:45;;;;;;;2.27;1.47;;;10.20;99.90;;;;;;5069031;28;20555;-89
2022/10/01 02:32:12;;;;;;;5.47;1.77;;;10.20;99.90;;;;;;5055411;28;20475;-88
2022/10/01 02:34:39;;;;;;;1.87;1.23;;;10.20;99.90;;;;;;5072467;28;20487;-85
2022/10/01 02:37:07;;;;;;;2.20;1.37;;;10.20;99.90;;;;;;5072695;28;20413;-88
2022/10/01 02:39:34;;;;;;;2.20;1.73;;;10.30;99.90;;;;;;5073091;28;20455;-89
2022/10/01 02:42:02;;;;;;;2.33;0.77;;;10.30;99.90;;;;;;5071448;28;20499;-86
2022/10/01 02:44:36;;;;;;;1.67;0.90;;;10.30;99.90;;;;;;5053700;28;20539;-87
2022/10/01 02:47:25;;;;;;;1.50;0.77;;;10.30;99.90;;;;;;5072366;28;20456;-86
2022/10/01 02:49:51;;;;;;;2.30;0.97;;;10.30;99.90;;;;;;5072507;28;21029;-87
2022/10/01 02:52:32;;;;;;;1.63;0.80;;;10.40;99.90;;;;;;5054538;28;20429;-87
2022/10/01 02:55:13;;;;;;;3.47;0.90;;;10.40;99.90;;;;;;5072094;28;20421;-87
2022/10/01 02:57:40;;;;;;;2.13;0.83;;;10.30;99.90;;;;;;5054292;28;20441;-88
2022/10/01 03:00:10;;;;;;;1.77;1.20;;;10.40;99.90;;;;;;5072486;28;20828;-86
2022/10/01 03:02:35;;;;;;;2.53;0.97;;;10.40;99.90;;;;;;5072198;28;20441;-87
2022/10/01 03:05:02;;;;;;;2.30;1.03;;;10.40;99.90;;;;;;5053638;28;20841;-86
2022/10/01 03:07:30;;;;;;;2.80;1.20;;;10.50;71.50;;;;;;5055109;28;20570;-87
2022/10/01 03:09:56;;;;;;;1.23;0.60;;;10.50;74.30;;;;;;5072604;28;20404;-87
2022/10/01 03:12:22;;;;;;;4.23;1.00;;;10.50;53.50;;;;;;5072112;28;21139;-87
2022/10/01 03:14:48;;;;;;;1.17;0.83;;;10.50;54.60;;;;;;5072155;28;20165;-88
2022/10/01 03:17:15;;;;;;;2.03;0.77;;;10.50;63.70;;;;;;5053881;28;20424;-85
2022/10/01 03:19:41;;;;;;;2.00;0.83;;;10.50;97.30;;;;;;5073113;28;20409;-88
2022/10/01 03:22:12;;;;;;;1.80;0.73;;;10.50;32.00;;;;;;5055421;28;20423;-84
2022/10/01 03:24:37;;;;;;;3.73;0.80;;;10.60;15.30;;;;;;5073222;28;20467;-84
2022/10/01 03:27:03;;;;;;;2.13;1.03;;;10.50;33.80;;;;;;5073422;28;20540;-84
2022/10/01 03:29:29;;;;;;;1.83;0.93;;;10.60;33.20;;;;;;5074718;28;20221;-84
2022/10/01 03:31:54;;;;;;;1.10;0.50;;;10.60;31.00;;;;;;5074105;28;20172;-85
2022/10/01 03:34:20;;;;;;;2.70;0.80;;;10.60;41.20;;;;;;5074136;28;20191;-85
2022/10/01 03:36:46;;;;;;;2.23;0.70;;;10.70;9.00;;;;;;5074676;28;20201;-86
2022/10/01 03:39:12;;;;;;;4.43;0.93;;;10.60;5.20;;;;;;5056596;28;20982;-84
2022/10/01 03:41:38;;;;;;;2.40;1.00;;;10.60;27.30;;;;;;5073596;28;20180;-85
2022/10/01 03:44:04;;;;;;;1.93;1.13;;;10.60;53.00;;;;;;5055416;28;20507;-84
2022/10/01 03:46:29;;;;;;;1.30;1.00;;;10.60;32.40;;;;;;5055728;28;20197;-85
2022/10/01 03:48:56;;;;;;;1.63;1.40;;;10.60;14.10;;;;;;5075109;28;20179;-86
2022/10/01 03:51:25;;;;;;;1.30;0.80;;;10.70;30.50;;;;;;5076093;28;20175;-86
2022/10/01 03:53:50;;;;;;;1.73;1.10;;;10.60;48.30;;;;;;5079454;28;20405;-84
2022/10/01 03:56:16;;;;;;;1.93;0.80;;;10.70;24.80;;;;;;5077893;28;20408;-83
2022/10/01 03:58:41;;;;;;;3.57;1.00;;;10.70;16.00;;;;;;5077780;28;20174;-84
2022/10/01 04:01:07;;;;;;;1.00;0.60;;;10.70;20.30;;;;;;5068052;28;20161;-83
2022/10/01 04:03:32;;;;;;;2.00;1.17;;;10.70;54.80;;;;;;5080940;28;20235;-84
2022/10/01 04:05:58;;;;;;;3.03;1.10;;;10.70;26.00;;;;;;5060558;28;20199;-84
2022/10/01 04:08:23;;;;;;;2.20;0.63;;;10.70;47.00;;;;;;5080246;28;20221;-89
2022/10/01 04:10:49;;;;;;;2.47;1.00;;;10.80;35.20;;;;;;5068785;28;20182;-84
2022/10/01 04:13:16;;;;;;;2.03;1.10;;;10.70;85.30;;;;;;5089085;28;20640;-86
2022/10/01 04:15:42;;;;;;;1.70;1.10;;;10.70;99.90;;;;;;5088162;28;20423;-84
2022/10/01 04:18:08;;;;;;;3.47;1.60;;;10.70;99.90;;;;;;5082665;28;20410;-93
2022/10/01 04:20:34;;;;;;;1.60;1.20;;;10.70;99.90;;;;;;5079644;28;20207;-87
2022/10/01 04:23:00;;;;;;;3.33;0.90;;;10.60;99.90;;;;;;5089028;28;20913;-87
2022/10/01 04:25:29;;;;;;;1.87;1.37;;;10.50;99.90;;;;;;5061270;28;20424;-88
2022/10/01 04:28:03;;;;;;;1.63;0.50;;;10.40;99.90;;;;;;5061583;28;20215;-94
2022/10/01 04:30:41;;;;;;;2.23;0.83;;;10.40;99.90;;;;;;5084483;28;20412;-92
2022/10/01 04:33:11;;;;;;;1.53;0.90;;;10.30;99.90;;;;;;5096426;23;20402;-85
2022/10/01 04:35:38;;;;;;;1.50;0.70;;;10.20;99.90;;;;;;5084033;28;20463;-86
2022/10/01 04:38:12;;;;;;;2.80;0.73;;;10.20;99.90;;;;;;5112804;28;20430;-87
2022/10/01 04:40:37;;;;;;;7.90;1.17;;;10.20;99.90;;;;;;5104373;28;20488;-86
2022/10/01 04:43:07;;;;;;;2.20;0.80;;;10.20;99.90;;;;;;5106888;22;20527;-87
2022/10/01 04:45:32;;;;;;;2.67;1.03;;;10.10;99.90;;;;;;5097935;28;20170;-85
2022/10/01 04:47:58;;;;;;;2.90;1.00;;;10.10;99.90;;;;;;5098957;28;20463;-93
2022/10/01 04:50:25;;;;;;;3.47;0.90;;;10.10;99.90;;;;;;5102165;28;20181;-94
2022/10/01 04:52:52;;;;;;;1.83;1.10;;;10.10;99.90;;;;;;5085048;28;20181;-90
2022/10/01 04:55:18;;;;;;;1.63;0.80;;;10.10;99.90;;;;;;5099442;28;20505;-85
2022/10/01 04:57:44;;;;;;;2.40;1.30;;;10.10;99.90;;;;;;5097168;28;20417;-87
2022/10/01 05:00:13;;;;;;;1.40;0.90;;;10.00;99.90;;;;;;5099334;28;20467;-85
2022/10/01 05:02:39;;;;;;;4.07;1.97;;;10.00;99.90;;;;;;5080084;28;20634;-87
2022/10/01 05:05:06;;;;;;;4.03;2.10;;;10.00;99.90;;;;;;5095992;28;20416;-86
2022/10/01 05:07:33;;;;;;;2.13;1.13;;;10.00;99.90;;;;;;5096508;28;20214;-88
2022/10/01 05:09:59;;;;;;;1.70;1.00;;;10.00;99.90;;;;;;5078554;28;20418;-86
2022/10/01 05:12:30;;;;;;;1.80;0.60;;;10.00;99.90;;;;;;5078755;28;21008;-89
2022/10/01 05:14:56;;;;;;;2.33;1.03;;;9.90;99.90;;;;;;5079238;28;20197;-91
2022/10/01 05:17:22;;;;;;;4.37;1.17;;;10.00;99.90;;;;;;5098875;28;20808;-91
2022/10/01 05:19:48;;;;;;;2.33;1.10;;;9.90;99.90;;;;;;5096223;28;20175;-84
2022/10/01 05:22:14;;;;;;;2.80;1.37;;;10.00;99.90;;;;;;5095590;28;20446;-85
2022/10/01 05:24:40;;;;;;;2.30;1.37;;;10.00;99.90;;;;;;5077608;28;20966;-84
2022/10/01 05:27:12;;;;;;;1.53;1.10;;;9.90;99.90;;;;;;5095055;28;20216;-85
2022/10/01 05:29:39;;;;;;;3.13;1.30;;;9.90;99.90;;;;;;5095394;28;20178;-85
2022/10/01 05:32:04;;;;;;;3.17;0.90;;;9.90;99.90;;;;;;5095362;28;20403;-86
2022/10/01 05:34:30;;;;;;;3.60;1.30;;;9.90;99.90;;;;;;5095248;28;20418;-84
2022/10/01 05:36:55;;;;;;;1.47;0.80;;;9.90;99.90;;;;;;5077136;28;20562;-84
2022/10/01 05:39:21;;;;;;;2.73;1.43;;;9.90;99.90;;;;;;5095062;28;20210;-85
2022/10/01 05:41:46;;;;;;;2.07;1.00;;;9.90;99.90;;;;;;5100845;28;20623;-87
2022/10/01 05:44:12;;;;;;;1.60;1.03;;;9.90;99.90;;;;;;5115928;28;20176;-84
2022/10/01 05:46:37;;;;;;;1.90;1.00;;;9.80;99.90;;;;;;5115870;28;20196;-91
2022/10/01 05:49:03;;;;;;;3.90;1.83;;;9.80;99.90;;;;;;5115803;28;20193;-87
2022/10/01 05:51:29;;;;;;;2.43;1.47;;;9.80;99.90;;;;;;5097451;28;20174;-88
2022/10/01 05:53:57;;;;;;;2.60;1.93;;;9.80;99.90;;;;;;5097859;28;20607;-89
2022/10/01 05:56:23;;;;;;;3.23;1.30;;;9.80;99.90;;;;;;5115432;28;20629;-86
2022/10/01 05:58:49;;;;;;;3.27;1.87;;;9.80;99.90;;;;;;5098437;28;20505;-86
2022/10/01 06:01:17;;;;;;;2.50;1.90;;;9.70;99.90;;;;;;5116017;28;20920;-86
2022/10/01 06:03:43;;;;;;;8.10;2.30;;;9.80;99.90;;;;;;5115062;28;20180;-86
2022/10/01 06:06:09;;;;;;;2.53;1.73;;;9.70;99.90;;;;;;5115531;28;20406;-88
2022/10/01 06:08:35;;;;;;;2.80;1.10;;;9.70;99.90;;;;;;5097230;28;20208;-86
2022/10/01 06:11:02;;;;;;;3.10;1.73;;;9.70;99.90;;;;;;5097291;28;20172;-87
2022/10/01 06:13:28;;;;;;;2.37;1.97;;;9.70;99.90;;;;;;5097772;28;20869;-92
2022/10/01 06:15:53;;;;;;;5.80;1.73;;;9.70;99.90;;;;;;5097170;28;20775;-87
2022/10/01 06:18:19;;;;;;;1.93;1.20;;;9.70;99.90;;;;;;5096972;28;20421;-85
2022/10/01 06:20:44;;;;;;;5.10;2.60;;;9.80;99.90;;;;;;5097603;28;20179;-88
2022/10/01 06:23:14;;;;;;;2.03;1.10;;;9.80;99.90;;;;;;5116669;28;20168;-86
2022/10/01 06:25:42;;;;;;;1.90;1.03;;;9.70;99.90;;;;;;5116560;28;20191;-86
2022/10/01 06:28:10;;;;;;;3.07;1.20;;;9.80;99.90;;;;;;5100211;28;20471;-87
2022/10/01 06:30:37;;;;;;;2.47;1.20;;;9.80;99.90;;;;;;5097242;28;20453;-86
2022/10/01 06:33:08;;;;;;;2.43;1.77;;;9.80;99.90;;;;;;5116216;28;20413;-89
2022/10/01 06:35:35;;;;;;;3.00;1.50;;;9.80;99.90;;;;;;5119084;28;20441;-85
2022/10/01 06:38:01;;;;;;;1.47;1.00;;;9.80;99.90;;;;;;5117235;28;20415;-86
2022/10/01 06:40:30;;;;;;;2.73;0.93;;;9.80;99.90;;;;;;5114830;28;20418;-87
2022/10/01 06:42:58;;;;;;;2.40;0.90;;;9.90;99.90;;;;;;5122010;28;20488;-86
2022/10/01 06:45:28;;;;;;;1.70;1.23;;;9.80;99.90;;;;;;5121990;28;20459;-86
2022/10/01 06:47:56;;;;;;;3.07;1.20;;;9.80;99.90;;;;;;5117104;28;20477;-85
2022/10/01 06:50:22;;;;;;;2.60;1.67;;;9.80;99.90;;;;;;5104587;28;20424;-85
2022/10/01 06:52:48;;;;;;;3.77;1.27;;;9.80;99.90;;;;;;5099965;28;20447;-85
2022/10/01 06:55:18;;;;;;;3.00;1.70;;;9.80;99.90;;;;;;5096781;28;21018;-85
2022/10/01 06:57:44;;;;;;;2.87;1.03;;;9.90;99.90;;;;;;5095612;28;20586;-89
2022/10/01 07:00:11;;;;;;;2.97;1.70;;;9.80;99.90;;;;;;5114211;28;20414;-87
2022/10/01 07:02:37;;;;;;;1.67;1.00;;;9.80;99.90;;;;;;5096290;28;20176;-89
2022/10/01 07:05:02;;;;;;;3.60;1.73;;;9.80;99.90;;;;;;5095972;28;20513;-88
2022/10/01 07:07:34;;;;;;;3.13;2.40;;;9.80;99.90;;;;;;5095795;28;20466;-88
2022/10/01 07:10:00;;;;;;;2.33;1.50;;;9.80;99.90;;;;;;5096631;28;20201;-91
2022/10/01 07:12:25;;;;;;;2.77;2.07;;;9.90;99.90;;;;;;5114881;28;20902;-87
2022/10/01 07:14:51;;;;;;;3.20;1.40;;;9.80;99.90;;;;;;5114580;28;20421;-88
2022/10/01 07:17:20;;;;;;;2.53;1.03;;;9.90;99.90;;;;;;5114310;28;20171;-85
2022/10/01 07:19:46;;;;;;;3.63;1.50;;;9.90;99.90;;;;;;5113904;28;20594;-84
2022/10/01 07:22:12;;;;;;;3.80;1.00;;;9.90;99.90;;;;;;5116273;28;20408;-88
2022/10/01 07:24:37;;;;;;;1.50;0.63;;;9.90;99.90;;;;;;5116977;28;20184;-87
2022/10/01 07:27:03;;;;;;;2.40;1.20;;;9.90;99.90;;;;;;5096601;28;20673;-87
2022/10/01 07:29:29;;;;;;;2.93;1.40;;;9.90;99.90;;;;;;5113200;28;20174;-85
2022/10/01 07:31:59;;;;;;;6.93;1.63;;;9.90;99.90;;;;;;5113849;28;20449;-86
2022/10/01 07:34:31;;;;;;;1.27;0.80;;;9.90;99.90;;;;;;5095672;28;20623;-86
2022/10/01 07:36:56;;;;;;;2.27;0.87;;;9.90;99.90;;;;;;5096343;28;20509;-87
2022/10/01 07:39:31;;;;;;;2.20;1.20;;;9.90;99.90;;;;;;5114934;28;20812;-85
2022/10/01 07:41:57;;;;;;;1.53;0.83;;;9.90;99.90;;;;;;5113509;28;20223;-86
2022/10/01 07:44:24;;;;;;;1.70;0.97;;;9.90;99.90;;;;;;5114293;28;20420;-87
2022/10/01 07:46:49;;;;;;;2.47;1.60;;;9.90;99.90;;;;;;5115568;28;20533;-90
2022/10/01 07:49:15;;;;;;;3.07;1.40;;;10.00;99.90;;;;;;5098600;28;20927;-87
2022/10/01 07:51:44;;;;;;;3.63;1.50;;;9.90;99.90;;;;;;5116823;28;20196;-87
2022/10/01 07:54:10;;;;;;;3.27;1.50;;;9.90;99.90;;;;;;5097846;28;20181;-87
2022/10/01 07:56:36;;;;;;;1.50;0.90;;;9.90;99.90;;;;;;5117127;28;20419;-86
2022/10/01 07:59:02;;;;;;;1.57;1.13;;;9.90;99.90;;;;;;5118375;28;20488;-86
2022/10/01 08:01:28;;;;;;;3.83;1.47;;;9.90;99.90;;;;;;5115309;28;20411;-86
2022/10/01 08:03:53;;;;;;;1.67;1.20;;;10.00;99.90;;;;;;5096548;28;20166;-84
2022/10/01 08:06:20;;;;;;;3.10;1.30;;;10.00;99.90;;;;;;5113139;28;20487;-87
2022/10/01 08:08:45;;;;;;;3.13;1.80;;;10.00;99.90;;;;;;5123444;28;20170;-85
2022/10/01 08:11:16;;;;;;;2.67;1.10;;;10.00;99.90;;;;;;5117107;28;20407;-92
2022/10/01 08:13:44;;;;;;;6.27;1.87;;;10.00;99.90;;;;;;5114463;28;20203;-84
2022/10/01 08:16:10;;;;;;;1.93;1.30;;;10.00;99.90;;;;;;5113167;28;20501;-84
2022/10/01 08:18:36;;;;;;;3.83;2.37;;;10.10;99.90;;;;;;5095038;28;20434;-86
2022/10/01 08:21:02;;;;;;;2.60;1.10;;;10.00;99.90;;;;;;5115126;28;20406;-84
2022/10/01 08:23:30;;;;;;;3.70;1.13;;;10.10;99.90;;;;;;5113113;28;20198;-85
2022/10/01 08:26:00;;;;;;;1.83;1.00;;;10.10;99.90;;;;;;5113044;28;20917;-84
2022/10/01 08:28:26;;;;;;;3.33;1.90;;;10.10;99.90;;;;;;5113242;28;20560;-86
2022/10/01 08:30:51;;;;;;;2.00;0.90;;;10.10;99.90;;;;;;5113078;28;20551;-85
2022/10/01 08:33:17;;;;;;;3.50;1.40;;;10.20;99.90;;;;;;5113264;28;20174;-83
2022/10/01 08:35:43;;;;;;;2.40;1.20;;;10.20;99.90;;;;;;5113281;28;20168;-84
2022/10/01 08:38:09;;;;;;;1.90;0.80;;;10.20;99.90;;;;;;5094961;28;20317;-86
2022/10/01 08:40:47;;;;;;;2.03;1.10;;;10.20;99.90;;;;;;5115905;28;20173;-84
2022/10/01 08:43:25;;;;;;;2.33;1.00;;;10.30;99.90;;;;;;5117619;28;20547;-88
2022/10/01 08:45:53;;;;;;;2.63;1.17;;;10.20;99.90;;;;;;5118433;28;20443;-83
2022/10/01 08:48:28;;;;;;;1.93;0.70;;;10.30;99.90;;;;;;5117531;28;20471;-83
2022/10/01 08:51:02;;;;;;;1.60;0.60;;;10.30;99.90;;;;;;5119131;28;20491;-85
2022/10/01 08:53:39;;;;;;;1.70;1.07;;;10.30;99.90;;;;;;5096638;28;20515;-86
2022/10/01 08:56:16;;;;;;;3.47;0.90;;;10.30;99.90;;;;;;5097267;28;20439;-84
2022/10/01 08:58:46;;;;;;;1.70;0.80;;;10.30;99.90;;;;;;5097604;28;20410;-89
2022/10/01 09:01:12;;;;;;;1.97;1.30;;;10.30;99.90;;;;;;5079194;28;20504;-83
2022/10/01 09:03:38;;;;;;;2.00;0.67;;;10.30;99.90;;;;;;5097660;28;20471;-84
2022/10/01 09:06:18;;;;;;;1.03;0.50;;;10.40;99.90;;;;;;5108319;28;20169;-88
2022/10/01 09:08:49;;;;;;;1.03;0.63;;;10.40;99.90;;;;;;5088234;22;20482;-84
2022/10/01 09:11:51;;;;;;;2.60;1.23;;;10.50;99.90;;;;;;5098384;23;20492;-84
2022/10/01 09:14:59;;;;;;;1.17;0.70;;;10.50;99.90;;;;;;5105058;28;20775;-84
2022/10/01 09:17:46;;;;;;;1.23;0.47;;;10.50;99.90;;;;;;5109488;28;20417;-85
2022/10/01 09:20:30;;;;;;;2.20;0.30;;;10.60;99.90;;;;;;5123163;22;20437;-84
2022/10/01 09:23:13;;;;;;;0.93;0.33;;;10.60;99.90;;;;;;5049088;28;20511;-84
2022/10/01 09:25:40;;;;;;;0.87;0.40;;;10.60;99.90;;;;;;5066917;28;20420;-86
2022/10/01 09:28:26;;;;;;;1.50;0.70;;;10.70;99.90;;;;;;5053553;28;20477;-91
2022/10/01 09:31:00;;;;;;;1.83;0.63;;;10.70;99.90;;;;;;5046873;28;20461;-84
2022/10/01 09:33:32;;;;;;;1.70;1.07;;;10.70;99.90;;;;;;5061758;28;20498;-88
2022/10/01 09:36:14;;;;;;;1.03;0.60;;;10.80;99.90;;;;;;5068947;28;20400;-93
2022/10/01 09:38:42;;;;;;;1.40;0.90;;;10.80;99.90;;;;;;5050265;28;20531;-84
2022/10/01 09:41:09;;;;;;;0.93;0.63;;;10.80;99.90;;;;;;5068337;28;20832;-89
2022/10/01 09:43:40;;;;;;;0.87;0.50;;;10.80;99.90;;;;;;5067726;28;20418;-93
2022/10/01 09:46:12;;;;;;;1.90;1.30;;;10.90;99.90;;;;;;5063573;28;20417;-94
2022/10/01 09:48:57;;;;;;;1.50;0.93;;;10.90;99.90;;;;;;5063315;28;20532;-93
2022/10/01 09:51:45;;;;;;;1.83;1.13;;;11.00;99.90;;;;;;5046458;28;20966;-92
2022/10/01 09:54:17;;;;;;;0.90;0.60;;;11.10;99.90;;;;;;5067054;28;20413;-88
2022/10/01 09:57:10;;;;;;;1.47;1.03;;;11.10;99.90;;;;;;5072511;28;20410;-84
2022/10/01 09:59:52;;;;;;;1.50;1.00;;;11.20;99.90;;;;;;5071887;28;20410;-94
2022/10/01 10:02:33;;;;;;;1.60;0.90;;;11.30;99.90;;;;;;5070880;28;20412;-94
2022/10/01 10:05:08;;;;;;;2.70;1.00;;;11.40;99.90;;;;;;5072353;28;20413;-86
2022/10/01 10:07:37;;;;;;;1.67;1.00;;;11.40;99.90;;;;;;5062724;28;20472;-85
2022/10/01 10:10:23;;;;;;;2.00;1.40;;;11.40;99.90;;;;;;5060217;28;20411;-92
2022/10/01 10:12:56;;;;;;;1.50;1.10;;;11.60;99.90;;;;;;5058074;28;20409;-84
2022/10/01 10:15:25;;;;;;;1.43;0.70;;;11.80;99.90;;;;;;5057595;28;20407;-89
2022/10/01 10:17:51;;;;;;;2.03;1.30;;;11.90;99.90;;;;;;5045801;28;20939;-85
2022/10/01 10:20:38;;;;;;;2.13;0.90;;;11.90;99.90;;;;;;5044758;28;20415;-85
2022/10/01 10:23:18;;;;;;;2.53;1.67;;;12.00;99.90;;;;;;5056414;28;20419;-86
2022/10/01 10:26:01;;;;;;;1.53;1.30;;;12.50;99.90;;;;;;5055257;28;20988;-84
2022/10/01 10:28:38;;;;;;;4.20;1.63;;;12.70;99.90;;;;;;5054932;28;20492;-82
2022/10/01 10:31:21;;;;;;;1.60;0.90;;;12.90;99.90;;;;;;5055577;28;20837;-83
2022/10/01 10:33:54;;;;;;;2.20;1.10;;;12.80;99.90;;;;;;5055160;28;20448;-82
2022/10/01 10:36:24;;;;;;;2.20;1.20;;;12.80;99.90;;;;;;5056765;28;20467;-87
2022/10/01 10:38:52;;;;;;;2.30;1.40;;;12.80;99.90;;;;;;5057606;28;20408;-88
2022/10/01 10:41:24;;;;;;;3.77;1.40;;;13.00;99.90;;;;;;5059462;28;20930;-82
2022/10/01 10:43:55;;;;;;;2.80;1.23;;;13.00;99.90;;;;;;5029396;28;20430;-82
2022/10/01 10:46:31;;;;;;;5.40;1.23;;;13.00;99.90;;;;;;5041209;28;20427;-82
2022/10/01 10:49:06;;;;;;;1.70;1.50;;;13.00;99.90;;;;;;5048042;28;20431;-83
2022/10/01 10:51:48;;;;;;;1.30;0.90;;;12.90;99.90;;;;;;5046104;28;20416;-82
2022/10/01 10:54:20;;;;;;;1.70;1.10;;;12.90;99.90;;;;;;5048313;28;20435;-82
2022/10/01 10:56:54;;;;;;;1.60;0.90;;;13.20;99.90;;;;;;5071729;23;20543;-83
2022/10/01 10:59:19;;;;;;;4.50;1.20;;;13.30;99.90;;;;;;5104753;28;20402;-83
2022/10/01 11:01:46;;;;;;;2.80;1.53;;;13.40;99.90;;;;;;5103866;28;20417;-81
2022/10/01 11:04:44;;;;;;;1.90;1.47;;;13.90;99.90;;;;;;5104845;28;20181;-81
2022/10/01 11:07:12;;;;;;;2.50;1.50;;;14.50;99.90;;;;;;5099121;28;20510;-81
2022/10/01 11:10:08;;;;;;;1.90;1.20;;;14.80;99.90;;;;;;5095934;28;20399;-83
2022/10/01 11:12:55;;;;;;;1.40;0.67;;;15.00;99.90;;;;;;5095835;28;20413;-86
2022/10/01 11:15:59;;;;;;;2.97;1.00;;;14.90;99.90;;;;;;5098753;28;20411;-82
2022/10/01 11:18:32;;;;;;;1.43;0.63;;;16.40;99.90;;;;;;5076730;28;20425;-93
2022/10/01 11:21:16;;;;;;;2.20;1.50;;;15.90;99.90;;;;;;5077420;28;20463;-83
2022/10/01 11:23:49;;;;;;;3.20;0.90;;;17.40;99.90;;;;;;5097845;28;20514;-82
2022/10/01 11:26:41;;;;;;;4.00;1.47;;;19.50;99.90;;;;;;5075660;28;20421;-83
2022/10/01 11:29:24;;;;;;;6.43;1.73;;;20.60;99.90;;;;;;5071178;28;20430;-82
2022/10/01 11:32:18;;;;;;;1.73;0.47;;;21.20;1.00;;;;;;5073638;28;20395;-83
2022/10/01 11:35:09;;;;;;;1.70;0.40;;;19.60;99.90;;;;;;5054856;28;20431;-82
2022/10/01 11:38:06;;;;;;;1.13;0.30;;;19.30;25.90;;;;;;5073423;28;20399;-82
2022/10/01 11:40:40;;;;;;;2.60;0.40;;;19.40;48.90;;;;;;5034504;28;20426;-86
2022/10/01 11:43:31;;;;;;;1.30;0.30;;;20.10;99.90;;;;;;5079093;28;20407;-87
2022/10/01 11:46:12;;;;;;;1.97;0.50;;;20.00;1.00;;;;;;5031247;28;20426;-83
2022/10/01 11:48:43;;;;;;;1.23;0.20;;;19.00;99.90;;;;;;5061830;28;20521;-83
2022/10/01 11:51:22;;;;;;;2.43;0.50;;;19.20;99.90;;;;;;5077175;28;20471;-83
2022/10/01 11:53:53;;;;;;;1.73;0.40;;;20.60;1.00;;;;;;5075432;28;20748;-82
2022/10/01 11:59:41;;;;;;;1.27;0.20;;;19.50;1.00;;;;;;5073971;28;20564;-83
2022/10/01 12:02:30;;;;;;;2.70;0.43;;;18.50;1.00;;;;;;5056158;28;20480;-86
2022/10/01 12:05:09;;;;;;;2.30;0.30;;;17.90;1.00;;;;;;5074875;28;20408;-84
2022/10/01 12:08:08;;;;;;;1.53;0.40;;;18.00;1.00;;;;;;5061762;28;20466;-82
2022/10/01 12:10:43;;;;;;;1.30;0.23;;;18.90;99.90;;;;;;5083335;28;20404;-82
2022/10/01 12:13:14;;;;;;;2.00;0.60;;;20.40;99.90;;;;;;5077615;28;20406;-82
2022/10/01 12:16:03;;;;;;;2.47;0.40;;;21.00;1.00;;;;;;5081212;28;20436;-86
2022/10/01 12:18:36;;;;;;;1.90;0.20;;;21.50;56.00;;;;;;5088591;23;20658;-85
2022/10/01 12:21:19;;;;;;;2.10;0.70;;;21.00;1.00;;;;;;5059752;28;20424;-82
2022/10/01 12:23:51;;;;;;;1.70;0.33;;;20.20;99.90;;;;;;5058304;28;20792;-85
2022/10/01 12:26:44;;;;;;;1.40;0.40;;;20.10;99.90;;;;;;5051980;28;20431;-84
2022/10/01 12:29:50;;;;;;;1.70;0.20;;;20.20;99.90;;;;;;5061861;28;20416;-91
2022/10/01 12:32:37;;;;;;;1.77;0.40;;;19.50;99.90;;;;;;5019815;28;20443;-82
2022/10/01 12:35:21;;;;;;;1.87;0.63;;;19.60;1.00;;;;;;5060124;28;20412;-88
2022/10/01 12:38:24;;;;;;;0.70;0.30;;;20.20;1.00;;;;;;5059370;28;20512;-85
2022/10/01 12:41:06;;;;;;;2.27;0.30;;;20.80;59.10;;;;;;5059929;28;20896;-83
2022/10/01 12:43:54;;;;;;;1.80;0.40;;;20.00;99.90;;;;;;5041912;28;21271;-81
2022/10/01 12:46:29;;;;;;;0.80;0.30;;;19.30;1.00;;;;;;5050010;28;20415;-90
2022/10/01 12:49:07;;;;;;;2.03;0.20;;;18.80;1.00;;;;;;5073727;28;20475;-82
2022/10/01 12:51:56;;;;;;;2.23;0.40;;;18.30;1.00;;;;;;5058077;28;20419;-91
2022/10/01 12:54:51;;;;;;;3.80;1.00;;;17.80;1.00;;;;;;5067401;28;20901;-93
2022/10/01 12:57:21;;;;;;;2.20;0.40;;;17.80;1.00;;;;;;5066932;28;21059;-84
2022/10/01 12:59:50;;;;;;;4.37;0.30;;;17.40;1.00;;;;;;5045807;28;20963;-87
2022/10/01 13:02:38;;;;;;;0.90;0.30;;;17.20;1.00;;;;;;5068337;28;20497;-94
2022/10/01 13:05:19;;;;;;;2.10;0.70;;;17.00;1.00;;;;;;5070084;28;20412;-90
2022/10/01 13:08:10;;;;;;;2.30;0.40;;;16.80;75.70;;;;;;5071345;28;20494;-95
2022/10/01 13:11:02;;;;;;;1.07;0.30;;;16.70;99.90;;;;;;5072278;28;20427;-92
2022/10/01 13:13:33;;;;;;;2.60;0.40;;;16.50;99.90;;;;;;5073624;28;20401;-81
2022/10/01 13:16:19;;;;;;;1.80;0.40;;;16.30;99.90;;;;;;5074312;28;20393;-88
2022/10/01 13:19:03;;;;;;;2.43;0.60;;;16.00;99.90;;;;;;5093891;22;20490;-93
2022/10/01 13:21:41;;;;;;;1.90;0.67;;;15.80;99.90;;;;;;5090187;28;20413;-86